Time;durP1;ratioP1;P1;durP2;ratioP2;P2;SDS_P1;SDS_P2;PMS_P1;PMS_P2;Temp;Humidity;BMP_temperature;BMP_pressure;BME280_temperature;BME280_humidity;BME280_pressure;Samples;Min_cycle;Max_cycle;Signal;HPM_P1;HPM_P2
2021/07/16 00:00:14;;;;;;;9.03;8.33;;;;;;;;;;5014789;28;20219;-64
2021/07/16 00:02:41;;;;;;;8.83;8.03;;;;;;;;;;5016602;28;20218;-65
2021/07/16 00:05:07;;;;;;;9.40;8.53;;;;;;;;;;5016972;28;20753;-65
2021/07/16 00:07:33;;;;;;;8.80;8.00;;;;;;;;;;5015847;28;20461;-65
2021/07/16 00:09:58;;;;;;;8.63;7.93;;;;;;;;;;5015341;28;20472;-65
2021/07/16 00:12:23;;;;;;;7.60;6.93;;;;;;;;;;5017087;28;20707;-65
2021/07/16 00:14:49;;;;;;;8.13;7.53;;;;;;;;;;5016071;28;20238;-64
2021/07/16 00:17:14;;;;;;;7.40;6.90;;;;;;;;;;5015420;28;20233;-65
2021/07/16 00:19:39;;;;;;;7.90;7.20;;;;;;;;;;5016610;28;20324;-65
2021/07/16 00:22:04;;;;;;;8.13;7.40;;;;;;;;;;5016431;28;20297;-65
2021/07/16 00:24:30;;;;;;;7.53;6.83;;;;;;;;;;5015321;28;20234;-65
2021/07/16 00:26:55;;;;;;;8.07;7.37;;;;;;;;;;5016060;28;20642;-65
2021/07/16 00:29:20;;;;;;;7.10;6.50;;;;;;;;;;5016740;28;20559;-65
2021/07/16 00:31:46;;;;;;;8.03;7.30;;;;;;;;;;5014540;28;20231;-65
2021/07/16 00:34:11;;;;;;;8.17;7.37;;;;;;;;;;5015836;28;20634;-65
2021/07/16 00:36:36;;;;;;;7.83;7.13;;;;;;;;;;5016674;28;20218;-65
2021/07/16 00:39:03;;;;;;;7.60;7.10;;;;;;;;;;5015456;28;20527;-65
2021/07/16 00:41:28;;;;;;;7.93;7.30;;;;;;;;;;5015302;28;20230;-65
2021/07/16 00:43:53;;;;;;;8.93;8.13;;;;;;;;;;5016292;28;20967;-65
2021/07/16 00:46:18;;;;;;;7.67;7.07;;;;;;;;;;5016302;28;20293;-65
2021/07/16 00:48:43;;;;;;;8.30;7.60;;;;;;;;;;5014812;28;20230;-65
2021/07/16 00:51:10;;;;;;;9.00;8.27;;;;;;;;;;5015342;28;20297;-65
2021/07/16 00:53:35;;;;;;;7.50;6.93;;;;;;;;;;5015377;28;20226;-65
2021/07/16 00:56:00;;;;;;;8.63;7.93;;;;;;;;;;5014624;28;20595;-65
2021/07/16 00:58:26;;;;;;;7.77;7.07;;;;;;;;;;5015680;28;20214;-65
2021/07/16 01:00:51;;;;;;;8.33;7.63;;;;;;;;;;5015844;28;20233;-63
2021/07/16 01:03:16;;;;;;;9.23;8.20;;;;;;;;;;5015298;28;20242;-65
2021/07/16 01:05:42;;;;;;;8.13;7.40;;;;;;;;;;5015067;28;20665;-66
2021/07/16 01:08:08;;;;;;;8.83;8.17;;;;;;;;;;5015732;28;20233;-65
2021/07/16 01:10:33;;;;;;;9.00;8.27;;;;;;;;;;5015585;28;20454;-66
2021/07/16 01:12:58;;;;;;;8.53;7.87;;;;;;;;;;5014179;28;20223;-64
2021/07/16 01:15:25;;;;;;;8.77;8.10;;;;;;;;;;5015024;28;20542;-66
2021/07/16 01:17:52;;;;;;;8.37;7.70;;;;;;;;;;5015614;28;20214;-65
2021/07/16 01:20:25;;;;;;;7.40;6.80;;;;;;;;;;5013113;28;20548;-65
2021/07/16 01:22:50;;;;;;;7.80;7.20;;;;;;;;;;5013872;28;20918;-65
2021/07/16 01:25:19;;;;;;;8.60;7.90;;;;;;;;;;5015683;28;20467;-65
2021/07/16 01:27:46;;;;;;;8.17;7.57;;;;;;;;;;5014555;28;20210;-65
2021/07/16 01:30:13;;;;;;;8.33;7.63;;;;;;;;;;5014287;28;20461;-65
2021/07/16 01:32:39;;;;;;;9.00;8.10;;;;;;;;;;5015498;28;20469;-64
2021/07/16 01:35:08;;;;;;;7.20;6.57;;;;;;;;;;5014354;28;20461;-64
2021/07/16 01:37:35;;;;;;;7.90;7.30;;;;;;;;;;5014329;28;20461;-65
2021/07/16 01:40:00;;;;;;;8.70;7.80;;;;;;;;;;5015012;28;20941;-65
2021/07/16 01:42:35;;;;;;;6.47;5.93;;;;;;;;;;5015126;28;20469;-65
2021/07/16 01:45:04;;;;;;;7.30;6.70;;;;;;;;;;5012853;28;20232;-64
2021/07/16 01:47:30;;;;;;;8.10;7.50;;;;;;;;;;5015178;28;20469;-65
2021/07/16 01:49:55;;;;;;;8.43;7.63;;;;;;;;;;5014765;28;20508;-65
2021/07/16 01:52:20;;;;;;;8.63;7.73;;;;;;;;;;5014001;28;20247;-65
2021/07/16 01:54:45;;;;;;;8.10;7.50;;;;;;;;;;5014817;28;20641;-65
2021/07/16 01:57:11;;;;;;;9.00;8.20;;;;;;;;;;5014821;28;20255;-66
2021/07/16 01:59:36;;;;;;;7.27;6.67;;;;;;;;;;5013096;28;20222;-65
2021/07/16 02:02:01;;;;;;;7.80;7.10;;;;;;;;;;5013579;28;20206;-65
2021/07/16 02:04:26;;;;;;;8.77;8.07;;;;;;;;;;5015228;28;20646;-65
2021/07/16 02:06:52;;;;;;;8.20;7.50;;;;;;;;;;5014129;28;20297;-65
2021/07/16 02:09:17;;;;;;;8.57;7.90;;;;;;;;;;5013285;28;20294;-65
2021/07/16 02:11:43;;;;;;;7.57;6.90;;;;;;;;;;5014731;28;20555;-66
2021/07/16 02:14:08;;;;;;;8.47;7.67;;;;;;;;;;5014379;28;20226;-66
2021/07/16 02:16:33;;;;;;;7.70;7.07;;;;;;;;;;5013179;28;20301;-65
2021/07/16 02:18:58;;;;;;;8.40;7.80;;;;;;;;;;5013885;28;20214;-64
2021/07/16 02:21:24;;;;;;;8.77;7.80;;;;;;;;;;5014708;28;20305;-64
2021/07/16 02:23:49;;;;;;;9.33;8.60;;;;;;;;;;5013413;28;20225;-66
2021/07/16 02:26:15;;;;;;;7.73;7.10;;;;;;;;;;5013531;28;20653;-66
2021/07/16 02:28:41;;;;;;;8.40;7.60;;;;;;;;;;5014580;28;20214;-65
2021/07/16 02:31:09;;;;;;;8.93;8.17;;;;;;;;;;5013047;28;20222;-65
2021/07/16 02:33:35;;;;;;;8.57;7.83;;;;;;;;;;5012890;28;20501;-65
2021/07/16 02:36:01;;;;;;;8.67;7.97;;;;;;;;;;5013835;28;20851;-65
2021/07/16 02:38:26;;;;;;;8.20;7.40;;;;;;;;;;5013019;28;20706;-65
2021/07/16 02:40:52;;;;;;;9.03;8.13;;;;;;;;;;5012963;28;20473;-65
2021/07/16 02:43:18;;;;;;;9.13;8.30;;;;;;;;;;5012862;28;20681;-65
2021/07/16 02:45:43;;;;;;;9.23;8.50;;;;;;;;;;5014249;28;20508;-64
2021/07/16 02:48:09;;;;;;;8.10;7.50;;;;;;;;;;5012475;28;20215;-65
2021/07/16 02:50:37;;;;;;;8.83;7.70;;;;;;;;;;5013413;28;20246;-65
2021/07/16 02:53:06;;;;;;;8.80;8.00;;;;;;;;;;5012783;28;20222;-65
2021/07/16 02:55:31;;;;;;;9.37;8.63;;;;;;;;;;5013170;28;20476;-65
2021/07/16 02:57:57;;;;;;;9.33;8.63;;;;;;;;;;5012571;28;21089;-65
2021/07/16 03:00:24;;;;;;;9.03;8.23;;;;;;;;;;5014059;28;20622;-66
2021/07/16 03:02:50;;;;;;;9.40;8.70;;;;;;;;;;5013699;28;20218;-65
2021/07/16 03:05:18;;;;;;;8.17;7.50;;;;;;;;;;5012219;28;20519;-65
2021/07/16 03:07:44;;;;;;;9.33;8.10;;;;;;;;;;5014224;28;20298;-65
2021/07/16 03:10:15;;;;;;;9.40;8.60;;;;;;;;;;5013416;28;20871;-65
2021/07/16 03:12:41;;;;;;;10.53;9.63;;;;;;;;;;5012555;28;20234;-65
2021/07/16 03:15:08;;;;;;;9.40;8.60;;;;;;;;;;5013139;28;20807;-65
2021/07/16 03:17:37;;;;;;;8.90;8.13;;;;;;;;;;5014061;28;20639;-66
2021/07/16 03:20:05;;;;;;;8.87;8.17;;;;;;;;;;5011994;28;20508;-66
2021/07/16 03:22:30;;;;;;;10.00;9.00;;;;;;;;;;5012252;28;20453;-65
2021/07/16 03:24:56;;;;;;;9.20;8.50;;;;;;;;;;5013428;28;20465;-64
2021/07/16 03:27:21;;;;;;;8.57;7.83;;;;;;;;;;5012994;28;20217;-66
2021/07/16 03:29:46;;;;;;;10.90;9.87;;;;;;;;;;5012701;28;20214;-65
2021/07/16 03:32:11;;;;;;;9.53;8.73;;;;;;;;;;5013435;28;20318;-64
2021/07/16 03:34:37;;;;;;;10.07;9.20;;;;;;;;;;5013413;28;20207;-65
2021/07/16 03:37:02;;;;;;;9.37;8.63;;;;;;;;;;5012080;28;20301;-64
2021/07/16 03:39:27;;;;;;;10.40;9.50;;;;;;;;;;5013708;28;20226;-65
2021/07/16 03:41:52;;;;;;;10.07;9.27;;;;;;;;;;5013816;28;20217;-65
2021/07/16 03:44:18;;;;;;;9.77;8.93;;;;;;;;;;5012000;28;20330;-65
2021/07/16 03:46:43;;;;;;;9.90;9.00;;;;;;;;;;5013111;28;20535;-65
2021/07/16 03:49:08;;;;;;;10.93;10.00;;;;;;;;;;5013232;28;20214;-64
2021/07/16 03:51:34;;;;;;;9.77;8.97;;;;;;;;;;5012710;28;20217;-65
2021/07/16 03:53:59;;;;;;;11.80;10.60;;;;;;;;;;5012370;28;20272;-64
2021/07/16 03:56:24;;;;;;;10.10;9.30;;;;;;;;;;5013766;28;20222;-65
2021/07/16 03:58:50;;;;;;;11.47;10.50;;;;;;;;;;5013035;28;20215;-65
2021/07/16 04:01:15;;;;;;;10.60;9.70;;;;;;;;;;5011665;28;20305;-65
2021/07/16 04:03:40;;;;;;;10.90;10.10;;;;;;;;;;5013592;28;20545;-65
2021/07/16 04:06:06;;;;;;;11.77;10.87;;;;;;;;;;5013112;28;20210;-64
2021/07/16 04:08:35;;;;;;;10.37;9.57;;;;;;;;;;5014762;28;20219;-65
2021/07/16 04:11:00;;;;;;;11.37;10.47;;;;;;;;;;5015550;28;20601;-65
2021/07/16 04:13:26;;;;;;;11.27;10.37;;;;;;;;;;5016985;28;20472;-66
2021/07/16 04:15:51;;;;;;;9.60;8.70;;;;;;;;;;5015871;28;20218;-65
2021/07/16 04:18:16;;;;;;;11.93;10.97;;;;;;;;;;5015925;28;20242;-65
2021/07/16 04:20:42;;;;;;;11.60;10.57;;;;;;;;;;5016707;28;20231;-65
2021/07/16 04:23:07;;;;;;;11.43;10.47;;;;;;;;;;5015837;28;20218;-65
2021/07/16 04:25:32;;;;;;;11.50;10.50;;;;;;;;;;5015686;28;20281;-65
2021/07/16 04:28:00;;;;;;;12.80;11.60;;;;;;;;;;5016781;28;20661;-65
2021/07/16 04:30:25;;;;;;;10.40;9.50;;;;;;;;;;5015950;28;20650;-65
2021/07/16 04:32:53;;;;;;;12.17;11.07;;;;;;;;;;5015338;28;20477;-65
2021/07/16 04:35:18;;;;;;;11.83;10.67;;;;;;;;;;5015941;28;20223;-65
2021/07/16 04:37:44;;;;;;;11.60;10.50;;;;;;;;;;5016602;28;20466;-66
2021/07/16 04:40:15;;;;;;;12.30;11.10;;;;;;;;;;5014863;28;20226;-65
2021/07/16 04:42:41;;;;;;;11.93;10.83;;;;;;;;;;5015809;28;20297;-65
2021/07/16 04:45:06;;;;;;;13.17;11.97;;;;;;;;;;5016283;28;21053;-65
2021/07/16 04:47:32;;;;;;;10.47;9.63;;;;;;;;;;5015856;28;20225;-66
2021/07/16 04:49:57;;;;;;;11.10;10.07;;;;;;;;;;5015225;28;20313;-66
2021/07/16 04:52:23;;;;;;;11.80;10.80;;;;;;;;;;5016027;28;20234;-64
2021/07/16 04:54:48;;;;;;;11.17;10.13;;;;;;;;;;5015852;28;20210;-64
2021/07/16 04:57:14;;;;;;;10.90;10.00;;;;;;;;;;5014292;28;20226;-64
2021/07/16 04:59:39;;;;;;;9.77;8.87;;;;;;;;;;5016156;28;20222;-65
2021/07/16 05:02:05;;;;;;;9.70;8.90;;;;;;;;;;5015929;28;20293;-65
2021/07/16 05:04:31;;;;;;;8.80;8.10;;;;;;;;;;5014485;28;20238;-65
2021/07/16 05:06:56;;;;;;;10.00;9.07;;;;;;;;;;5015902;28;20488;-65
2021/07/16 05:09:23;;;;;;;9.97;9.13;;;;;;;;;;5015483;28;20677;-64
2021/07/16 05:11:48;;;;;;;10.10;9.20;;;;;;;;;;5014626;28;20317;-65
2021/07/16 05:14:13;;;;;;;10.60;9.50;;;;;;;;;;5014823;28;20528;-65
2021/07/16 05:16:39;;;;;;;11.93;10.50;;;;;;;;;;5014827;28;20361;-65
2021/07/16 05:19:04;;;;;;;11.70;10.60;;;;;;;;;;5013317;28;20647;-64
2021/07/16 05:21:29;;;;;;;11.63;10.53;;;;;;;;;;5014559;28;20313;-66
2021/07/16 05:23:55;;;;;;;10.53;8.90;;;;;;;;;;5015826;28;20666;-66
2021/07/16 05:26:20;;;;;;;10.27;9.33;;;;;;;;;;5014861;28;20222;-65
2021/07/16 05:28:47;;;;;;;11.27;10.13;;;;;;;;;;5014360;28;20237;-64
2021/07/16 05:31:12;;;;;;;10.33;9.43;;;;;;;;;;5014765;28;20238;-63
2021/07/16 05:33:38;;;;;;;10.23;9.10;;;;;;;;;;5015550;28;20465;-66
2021/07/16 05:36:04;;;;;;;9.40;8.60;;;;;;;;;;5014140;28;20226;-65
2021/07/16 05:38:30;;;;;;;9.30;8.57;;;;;;;;;;5014382;28;20218;-65
2021/07/16 05:40:55;;;;;;;10.17;9.33;;;;;;;;;;5015394;28;20967;-65
2021/07/16 05:43:21;;;;;;;10.33;9.60;;;;;;;;;;5014036;28;20314;-65
2021/07/16 05:45:46;;;;;;;10.00;9.30;;;;;;;;;;5013286;28;20215;-65
2021/07/16 05:48:12;;;;;;;9.77;9.07;;;;;;;;;;5014927;28;20566;-65
2021/07/16 05:50:39;;;;;;;9.87;9.07;;;;;;;;;;5014935;28;20215;-65
2021/07/16 05:53:05;;;;;;;9.70;8.80;;;;;;;;;;5013759;28;20277;-65
2021/07/16 05:55:30;;;;;;;8.97;8.23;;;;;;;;;;5014615;28;20906;-65
2021/07/16 05:57:55;;;;;;;9.67;8.87;;;;;;;;;;5015180;28;20619;-64
2021/07/16 06:00:20;;;;;;;9.20;8.50;;;;;;;;;;5013286;28;20242;-64
2021/07/16 06:02:46;;;;;;;9.83;9.07;;;;;;;;;;5014635;28;20218;-64
2021/07/16 06:05:11;;;;;;;10.70;9.60;;;;;;;;;;5014563;28;20222;-63
2021/07/16 06:07:37;;;;;;;10.70;9.60;;;;;;;;;;5014044;28;20214;-64
2021/07/16 06:10:03;;;;;;;10.63;9.83;;;;;;;;;;5013831;28;20237;-64
2021/07/16 06:12:28;;;;;;;9.63;8.83;;;;;;;;;;5012021;28;20666;-64
2021/07/16 06:14:55;;;;;;;11.57;10.60;;;;;;;;;;5014124;28;20476;-63
2021/07/16 06:17:24;;;;;;;10.10;9.30;;;;;;;;;;5018262;28;20313;-64
2021/07/16 06:19:49;;;;;;;10.67;9.77;;;;;;;;;;5014786;28;20480;-64
2021/07/16 06:22:14;;;;;;;10.43;9.57;;;;;;;;;;5026444;28;20821;-63
2021/07/16 06:24:40;;;;;;;10.10;9.30;;;;;;;;;;5018569;28;20218;-63
2021/07/16 06:27:05;;;;;;;9.90;9.00;;;;;;;;;;5021108;28;20225;-65
2021/07/16 06:29:31;;;;;;;9.97;9.07;;;;;;;;;;5020453;28;20280;-64
2021/07/16 06:31:56;;;;;;;9.80;8.90;;;;;;;;;;5012029;28;20237;-63
2021/07/16 06:34:21;;;;;;;9.90;9.20;;;;;;;;;;5013172;28;20305;-63
2021/07/16 06:36:47;;;;;;;10.80;9.13;;;;;;;;;;5027372;28;20222;-64
2021/07/16 06:39:12;;;;;;;9.93;9.13;;;;;;;;;;5017844;28;20250;-63
2021/07/16 06:41:37;;;;;;;11.03;10.13;;;;;;;;;;5015356;28;20225;-62
2021/07/16 06:44:03;;;;;;;11.00;10.00;;;;;;;;;;5014337;28;20305;-63
2021/07/16 06:46:28;;;;;;;10.97;10.03;;;;;;;;;;5025786;28;20283;-64
2021/07/16 06:48:54;;;;;;;10.90;10.00;;;;;;;;;;5012814;28;20465;-63
2021/07/16 06:51:20;;;;;;;9.93;9.03;;;;;;;;;;5014893;28;20234;-62
2021/07/16 06:53:45;;;;;;;9.37;8.60;;;;;;;;;;5026294;28;20237;-63
2021/07/16 06:56:11;;;;;;;10.47;9.77;;;;;;;;;;5014770;28;20945;-63
2021/07/16 06:58:36;;;;;;;11.77;9.30;;;;;;;;;;5013292;28;20229;-63
2021/07/16 07:01:01;;;;;;;9.43;8.70;;;;;;;;;;5015355;28;20330;-63
2021/07/16 07:03:27;;;;;;;10.07;9.27;;;;;;;;;;5013836;28;20225;-62
2021/07/16 07:05:54;;;;;;;10.10;9.20;;;;;;;;;;5017801;28;20222;-63
2021/07/16 07:08:19;;;;;;;9.93;9.10;;;;;;;;;;5014987;28;20957;-64
2021/07/16 07:10:45;;;;;;;9.67;8.97;;;;;;;;;;5023494;28;20466;-63
2021/07/16 07:13:10;;;;;;;9.97;9.17;;;;;;;;;;5013322;28;20237;-64
2021/07/16 07:15:36;;;;;;;10.13;9.30;;;;;;;;;;5012731;28;20959;-63
2021/07/16 07:18:05;;;;;;;10.00;9.20;;;;;;;;;;5027055;28;20236;-63
2021/07/16 07:20:32;;;;;;;9.20;8.30;;;;;;;;;;5012437;28;22995;-62
2021/07/16 07:22:58;;;;;;;9.23;8.33;;;;;;;;;;5013477;28;20469;-64
2021/07/16 07:25:23;;;;;;;10.67;9.60;;;;;;;;;;5020433;28;20468;-64
2021/07/16 07:27:48;;;;;;;28.40;25.57;;;;;;;;;;5012911;28;20226;-63
2021/07/16 07:30:14;;;;;;;13.90;12.60;;;;;;;;;;5012588;28;20230;-62
2021/07/16 07:32:39;;;;;;;19.67;17.83;;;;;;;;;;5026765;28;20249;-65
2021/07/16 07:35:07;;;;;;;12.60;11.60;;;;;;;;;;5013363;28;20539;-64
2021/07/16 07:37:32;;;;;;;18.93;16.90;;;;;;;;;;5011994;28;20230;-64
2021/07/16 07:40:10;;;;;;;45.20;40.73;;;;;;;;;;5021469;28;20537;-64
2021/07/16 07:42:35;;;;;;;20.93;18.90;;;;;;;;;;4999800;28;20241;-64
2021/07/16 07:45:01;;;;;;;12.90;10.70;;;;;;;;;;5016092;28;20469;-63
2021/07/16 07:47:31;;;;;;;11.20;10.30;;;;;;;;;;5019609;28;20764;-64
2021/07/16 07:49:57;;;;;;;27.30;24.40;;;;;;;;;;5027082;28;20670;-64
2021/07/16 07:52:22;;;;;;;14.27;13.07;;;;;;;;;;5016011;28;20472;-64
2021/07/16 07:54:47;;;;;;;16.90;15.27;;;;;;;;;;5026347;28;20244;-65
2021/07/16 07:57:13;;;;;;;14.63;12.90;;;;;;;;;;5021200;28;20540;-63
2021/07/16 07:59:38;;;;;;;11.43;10.43;;;;;;;;;;5018630;28;20249;-63
2021/07/16 08:02:04;;;;;;;17.50;15.80;;;;;;;;;;5018224;28;20253;-64
2021/07/16 08:04:29;;;;;;;74.47;66.60;;;;;;;;;;5027824;28;20712;-64
2021/07/16 08:06:54;;;;;;;17.40;15.73;;;;;;;;;;5025422;28;20226;-65
2021/07/16 08:09:19;;;;;;;24.30;21.93;;;;;;;;;;5016043;28;20229;-64
2021/07/16 08:11:45;;;;;;;19.17;17.30;;;;;;;;;;5016729;28;20215;-64
2021/07/16 08:14:10;;;;;;;12.37;11.27;;;;;;;;;;5021671;28;20381;-64
2021/07/16 08:16:35;;;;;;;23.27;20.87;;;;;;;;;;5017746;28;20535;-64
2021/07/16 08:19:00;;;;;;;15.50;13.63;;;;;;;;;;5017901;28;20390;-64
2021/07/16 08:21:26;;;;;;;11.03;10.00;;;;;;;;;;5029380;28;20692;-64
2021/07/16 08:23:52;;;;;;;12.80;11.70;;;;;;;;;;5024932;28;20221;-63
2021/07/16 08:26:20;;;;;;;15.57;14.17;;;;;;;;;;5023099;28;20589;-63
2021/07/16 08:28:46;;;;;;;12.87;11.70;;;;;;;;;;5022214;28;21391;-64
2021/07/16 08:31:11;;;;;;;18.17;16.37;;;;;;;;;;5029918;28;20959;-63
2021/07/16 08:33:36;;;;;;;12.83;11.60;;;;;;;;;;5023815;28;20567;-64
2021/07/16 08:36:02;;;;;;;20.57;18.77;;;;;;;;;;5023006;28;20229;-63
2021/07/16 08:38:27;;;;;;;13.97;12.77;;;;;;;;;;5027665;28;20250;-63
2021/07/16 08:40:54;;;;;;;15.50;12.77;;;;;;;;;;5029103;28;20236;-64
2021/07/16 08:43:20;;;;;;;11.30;10.30;;;;;;;;;;5024770;28;20229;-64
2021/07/16 08:45:46;;;;;;;16.67;15.07;;;;;;;;;;5014246;28;20549;-63
2021/07/16 08:48:12;;;;;;;13.67;11.00;;;;;;;;;;5026920;28;20468;-63
2021/07/16 08:50:39;;;;;;;13.33;12.00;;;;;;;;;;5028535;28;20815;-63
2021/07/16 08:53:04;;;;;;;14.27;12.87;;;;;;;;;;5024454;28;20927;-63
2021/07/16 08:55:37;;;;;;;17.53;15.93;;;;;;;;;;5021369;28;20489;-62
2021/07/16 08:58:04;;;;;;;17.87;16.23;;;;;;;;;;5026287;28;20222;-63
2021/07/16 09:00:29;;;;;;;16.53;15.03;;;;;;;;;;5028648;28;20549;-63
2021/07/16 09:02:57;;;;;;;13.50;12.20;;;;;;;;;;5025304;28;20984;-64
2021/07/16 09:05:43;;;;;;;13.63;12.33;;;;;;;;;;5021819;28;20240;-63
2021/07/16 09:08:16;;;;;;;14.67;11.50;;;;;;;;;;5022906;28;20473;-63
2021/07/16 09:10:51;;;;;;;14.27;12.83;;;;;;;;;;5009686;28;20481;-63
2021/07/16 09:13:17;;;;;;;16.80;14.87;;;;;;;;;;5008046;28;20544;-64
2021/07/16 09:15:48;;;;;;;14.20;12.23;;;;;;;;;;5026667;28;20472;-65
2021/07/16 09:18:21;;;;;;;14.33;12.93;;;;;;;;;;5027492;28;20491;-64
2021/07/16 09:20:48;;;;;;;11.60;10.70;;;;;;;;;;5018843;28;20493;-64
2021/07/16 09:23:18;;;;;;;14.30;13.00;;;;;;;;;;5019011;28;20480;-64
2021/07/16 09:25:44;;;;;;;11.90;11.00;;;;;;;;;;5024761;28;20469;-64
2021/07/16 09:28:24;;;;;;;10.90;9.87;;;;;;;;;;5027926;28;20485;-64
2021/07/16 09:30:49;;;;;;;18.80;17.00;;;;;;;;;;5028001;28;20476;-63
2021/07/16 09:33:15;;;;;;;13.20;11.70;;;;;;;;;;5027861;28;20493;-64
2021/07/16 09:35:41;;;;;;;13.10;11.77;;;;;;;;;;5015247;28;20230;-64
2021/07/16 09:38:14;;;;;;;15.90;14.50;;;;;;;;;;5026979;28;20834;-64
2021/07/16 09:40:50;;;;;;;13.07;12.03;;;;;;;;;;5025683;28;20245;-64
2021/07/16 09:43:18;;;;;;;19.90;17.97;;;;;;;;;;5008219;28;20472;-64
2021/07/16 09:45:45;;;;;;;24.63;22.30;;;;;;;;;;5020274;28;20802;-64
2021/07/16 09:48:33;;;;;;;20.70;18.73;;;;;;;;;;5025767;28;20476;-60
2021/07/16 09:51:21;;;;;;;26.40;23.67;;;;;;;;;;5017881;28;20960;-61
2021/07/16 09:53:52;;;;;;;22.87;20.93;;;;;;;;;;5021522;28;20548;-60
2021/07/16 09:56:22;;;;;;;18.43;16.83;;;;;;;;;;5021491;28;20460;-62
2021/07/16 09:58:59;;;;;;;19.30;17.60;;;;;;;;;;5021430;28;20484;-60
2021/07/16 10:01:25;;;;;;;12.60;11.50;;;;;;;;;;5024874;28;20453;-61
2021/07/16 10:03:51;;;;;;;14.87;13.57;;;;;;;;;;5027107;28;20464;-60
2021/07/16 10:06:16;;;;;;;17.47;15.80;;;;;;;;;;5021597;28;20545;-60
2021/07/16 10:08:42;;;;;;;23.63;21.43;;;;;;;;;;5019772;28;20226;-60
2021/07/16 10:11:08;;;;;;;10.10;9.07;;;;;;;;;;5025382;28;20222;-60
2021/07/16 10:13:35;;;;;;;10.50;9.60;;;;;;;;;;5018860;28;20749;-60
2021/07/16 10:16:02;;;;;;;10.70;9.83;;;;;;;;;;5022565;28;20230;-61
2021/07/16 10:18:28;;;;;;;12.40;11.03;;;;;;;;;;5026892;28;20814;-61
2021/07/16 10:20:53;;;;;;;12.23;11.20;;;;;;;;;;5025644;28;20475;-59
2021/07/16 10:23:19;;;;;;;11.90;10.80;;;;;;;;;;5020245;28;20457;-60
2021/07/16 10:25:48;;;;;;;9.93;9.13;;;;;;;;;;5021582;28;20543;-62
2021/07/16 10:28:42;;;;;;;17.30;15.80;;;;;;;;;;5027767;28;20674;-60
2021/07/16 10:31:42;;;;;;;12.97;11.73;;;;;;;;;;5026873;28;20464;-62
2021/07/16 10:34:40;;;;;;;12.43;11.23;;;;;;;;;;5016082;28;20461;-68
2021/07/16 10:37:14;;;;;;;11.50;10.60;;;;;;;;;;5014068;28;20497;-67
2021/07/16 10:39:57;;;;;;;14.50;13.20;;;;;;;;;;5004477;28;20973;-67
2021/07/16 10:42:25;;;;;;;14.27;13.03;;;;;;;;;;5015075;28;20460;-64
2021/07/16 10:44:52;;;;;;;11.33;10.33;;;;;;;;;;5027389;28;20473;-65
2021/07/16 10:47:47;;;;;;;12.97;11.77;;;;;;;;;;5025325;28;20544;-66
2021/07/16 10:50:32;;;;;;;13.17;12.07;;;;;;;;;;5010577;28;20464;-65
2021/07/16 10:52:57;;;;;;;15.30;13.80;;;;;;;;;;5020330;28;20548;-65
2021/07/16 10:55:29;;;;;;;14.80;13.40;;;;;;;;;;5021933;28;20560;-65
2021/07/16 10:57:54;;;;;;;11.73;10.53;;;;;;;;;;5026853;28;20272;-65
2021/07/16 11:00:35;;;;;;;10.03;9.10;;;;;;;;;;5019137;28;20953;-64
2021/07/16 11:03:07;;;;;;;11.93;10.93;;;;;;;;;;5020119;28;20221;-64
2021/07/16 11:05:32;;;;;;;15.90;14.57;;;;;;;;;;5019528;28;20789;-64
2021/07/16 11:07:58;;;;;;;13.40;12.07;;;;;;;;;;5026805;28;20461;-64
2021/07/16 11:10:45;;;;;;;13.70;12.50;;;;;;;;;;5026853;28;20715;-64
2021/07/16 11:13:36;;;;;;;13.93;12.67;;;;;;;;;;5014281;28;20820;-63
2021/07/16 11:16:27;;;;;;;13.23;12.13;;;;;;;;;;5023378;28;20461;-64
2021/07/16 11:18:59;;;;;;;14.40;12.93;;;;;;;;;;5013543;28;20475;-64
2021/07/16 11:21:42;;;;;;;15.53;14.33;;;;;;;;;;5033651;28;20528;-64
2021/07/16 11:24:21;;;;;;;13.97;12.67;;;;;;;;;;5028721;28;20958;-63
2021/07/16 11:26:53;;;;;;;11.37;10.27;;;;;;;;;;5024352;28;20459;-63
2021/07/16 11:29:20;;;;;;;12.47;11.50;;;;;;;;;;5023300;28;20741;-64
2021/07/16 11:31:45;;;;;;;12.30;11.10;;;;;;;;;;5036859;28;20464;-64
2021/07/16 11:34:14;;;;;;;12.53;11.20;;;;;;;;;;5024906;28;20473;-64
2021/07/16 11:36:49;;;;;;;10.57;9.77;;;;;;;;;;5023800;28;20224;-64
2021/07/16 11:39:29;;;;;;;12.70;11.60;;;;;;;;;;5023631;28;20547;-64
2021/07/16 11:41:55;;;;;;;13.53;12.33;;;;;;;;;;5028912;28;20476;-64
2021/07/16 11:44:45;;;;;;;10.57;8.97;;;;;;;;;;5030243;28;20602;-64
2021/07/16 11:47:14;;;;;;;9.80;8.90;;;;;;;;;;5029174;28;20480;-65
2021/07/16 11:49:43;;;;;;;8.67;7.87;;;;;;;;;;5024482;28;20468;-64
2021/07/16 11:52:08;;;;;;;12.90;10.70;;;;;;;;;;5024023;28;20477;-65
2021/07/16 11:54:34;;;;;;;10.83;9.80;;;;;;;;;;5031327;28;20552;-65
2021/07/16 11:57:00;;;;;;;10.53;9.73;;;;;;;;;;5031064;28;20236;-65
2021/07/16 11:59:27;;;;;;;8.47;7.77;;;;;;;;;;5025924;28;20228;-65
2021/07/16 12:02:08;;;;;;;7.90;7.27;;;;;;;;;;5038647;28;20224;-66
2021/07/16 12:04:34;;;;;;;6.90;6.33;;;;;;;;;;5014440;28;20736;-66
2021/07/16 12:07:00;;;;;;;8.53;7.93;;;;;;;;;;5024079;28;21000;-66
2021/07/16 12:09:40;;;;;;;11.07;9.97;;;;;;;;;;5014347;28;20542;-65
2021/07/16 12:12:08;;;;;;;7.07;6.40;;;;;;;;;;5024623;28;20230;-66
2021/07/16 12:14:58;;;;;;;9.07;8.30;;;;;;;;;;5032853;28;20468;-65
2021/07/16 12:17:28;;;;;;;9.80;8.40;;;;;;;;;;5008866;28;20785;-66
2021/07/16 12:19:54;;;;;;;7.07;6.50;;;;;;;;;;5026390;28;20482;-65
2021/07/16 12:22:22;;;;;;;7.80;7.20;;;;;;;;;;5019972;28;20591;-66
2021/07/16 12:24:48;;;;;;;8.43;7.40;;;;;;;;;;5033294;28;20213;-66
2021/07/16 12:27:14;;;;;;;6.47;5.97;;;;;;;;;;5032910;28;20217;-65
2021/07/16 12:29:40;;;;;;;7.70;7.00;;;;;;;;;;5033983;28;20242;-66
2021/07/16 12:32:05;;;;;;;6.77;6.27;;;;;;;;;;5029103;28;20222;-66
2021/07/16 12:34:31;;;;;;;7.20;6.70;;;;;;;;;;5025102;28;20218;-65
2021/07/16 12:37:14;;;;;;;5.70;5.30;;;;;;;;;;5027191;28;20270;-66
2021/07/16 12:39:41;;;;;;;7.77;7.17;;;;;;;;;;5033604;28;20284;-65
2021/07/16 12:42:12;;;;;;;8.83;7.63;;;;;;;;;;5030930;28;20283;-65
2021/07/16 12:44:38;;;;;;;11.20;10.30;;;;;;;;;;5025850;28;20678;-64
2021/07/16 12:47:03;;;;;;;8.70;8.00;;;;;;;;;;5029836;28;20276;-65
2021/07/16 12:49:29;;;;;;;9.27;8.57;;;;;;;;;;5033269;28;20214;-65
2021/07/16 12:52:06;;;;;;;7.27;6.57;;;;;;;;;;5029190;28;20217;-65
2021/07/16 12:54:31;;;;;;;7.70;7.10;;;;;;;;;;5026541;28;20231;-64
2021/07/16 12:57:10;;;;;;;7.50;6.80;;;;;;;;;;5027176;28;20788;-65
2021/07/16 12:59:45;;;;;;;6.77;6.27;;;;;;;;;;5038784;28;20225;-65
2021/07/16 13:02:18;;;;;;;7.80;7.10;;;;;;;;;;5012750;28;20465;-64
2021/07/16 13:04:47;;;;;;;7.73;7.10;;;;;;;;;;5030105;28;20481;-64
2021/07/16 13:07:23;;;;;;;8.63;8.00;;;;;;;;;;5032162;28;20475;-65
2021/07/16 13:09:48;;;;;;;9.20;6.93;;;;;;;;;;5027765;28;20462;-65
2021/07/16 13:12:17;;;;;;;7.83;7.13;;;;;;;;;;5022564;28;20516;-65
2021/07/16 13:14:54;;;;;;;7.67;7.00;;;;;;;;;;5032005;28;20225;-65
2021/07/16 13:17:37;;;;;;;8.10;7.43;;;;;;;;;;5027844;28;20464;-64
2021/07/16 13:20:09;;;;;;;9.07;8.37;;;;;;;;;;5024553;28;20562;-64
2021/07/16 13:22:37;;;;;;;7.87;7.17;;;;;;;;;;5026812;28;20577;-65
2021/07/16 13:25:08;;;;;;;10.00;9.20;;;;;;;;;;5029690;28;20532;-65
2021/07/16 13:27:34;;;;;;;9.47;8.57;;;;;;;;;;5026381;28;20460;-65
2021/07/16 13:29:59;;;;;;;9.83;8.93;;;;;;;;;;5030626;28;20874;-65
2021/07/16 13:32:25;;;;;;;8.13;7.53;;;;;;;;;;5028366;28;20551;-65
2021/07/16 13:34:50;;;;;;;9.57;8.73;;;;;;;;;;5020298;28;20245;-66
2021/07/16 13:37:17;;;;;;;10.20;8.73;;;;;;;;;;5027472;28;20217;-65
2021/07/16 13:39:43;;;;;;;7.30;6.80;;;;;;;;;;5032459;28;20309;-65
2021/07/16 13:42:08;;;;;;;9.93;8.97;;;;;;;;;;5028277;28;20476;-65
2021/07/16 13:44:34;;;;;;;10.07;8.13;;;;;;;;;;5023915;28;20243;-64
2021/07/16 13:47:00;;;;;;;9.90;9.10;;;;;;;;;;5029120;28;20226;-65
2021/07/16 13:49:25;;;;;;;10.43;9.63;;;;;;;;;;5029587;28;20534;-64
2021/07/16 13:51:52;;;;;;;12.33;11.43;;;;;;;;;;5024666;28;20456;-65
2021/07/16 13:54:17;;;;;;;13.27;12.17;;;;;;;;;;5020887;28;20229;-65
2021/07/16 13:56:43;;;;;;;14.10;12.77;;;;;;;;;;5025888;28;20781;-64
2021/07/16 13:59:08;;;;;;;13.27;12.07;;;;;;;;;;5025577;28;20237;-65
2021/07/16 14:01:33;;;;;;;13.77;12.47;;;;;;;;;;5014079;28;20556;-65
2021/07/16 14:03:59;;;;;;;14.97;13.77;;;;;;;;;;5028308;28;20225;-64
2021/07/16 14:06:24;;;;;;;14.00;12.70;;;;;;;;;;5014065;28;20218;-65
2021/07/16 14:08:50;;;;;;;12.10;11.00;;;;;;;;;;5027132;28;20232;-65
2021/07/16 14:11:15;;;;;;;12.37;11.33;;;;;;;;;;5021888;28;20226;-64
2021/07/16 14:13:41;;;;;;;12.57;11.47;;;;;;;;;;5019787;28;20318;-65
2021/07/16 14:16:06;;;;;;;11.93;10.77;;;;;;;;;;5018365;28;20234;-65
2021/07/16 14:18:31;;;;;;;13.67;12.30;;;;;;;;;;5027014;28;20218;-64
2021/07/16 14:20:57;;;;;;;13.53;12.43;;;;;;;;;;5022921;28;20654;-64
2021/07/16 14:23:23;;;;;;;14.07;12.80;;;;;;;;;;5025891;28;20221;-64
2021/07/16 14:25:51;;;;;;;13.93;12.63;;;;;;;;;;5025834;28;20464;-64
2021/07/16 14:28:16;;;;;;;14.33;13.03;;;;;;;;;;5027374;28;20242;-64
2021/07/16 14:30:42;;;;;;;13.47;12.17;;;;;;;;;;5025495;28;21004;-63
2021/07/16 14:33:07;;;;;;;12.97;11.77;;;;;;;;;;5015243;28;20235;-64